Time;durP1;ratioP1;P1;durP2;ratioP2;P2;SDS_P1;SDS_P2;PMS_P1;PMS_P2;Temp;Humidity;BMP_temperature;BMP_pressure;BME280_temperature;BME280_humidity;BME280_pressure;Samples;Min_cycle;Max_cycle;Signal;HPM_P1;HPM_P2
2022/07/26 00:00:20;;;;;;;7.2;3.8;;;;;;;;;;;;;
2022/07/26 00:02:46;;;;;;;7.5;3.8;;;;;;;;;;;;;
2022/07/26 00:05:11;;;;;;;5.5;3.2;;;;;;;;;;;;;
2022/07/26 00:07:36;;;;;;;8.5;3.7;;;;;;;;;;;;;
2022/07/26 00:10:01;;;;;;;5.2;3.7;;;;;;;;;;;;;
2022/07/26 00:12:26;;;;;;;10.4;4.1;;;;;;;;;;;;;
2022/07/26 00:14:52;;;;;;;6.2;3.7;;;;;;;;;;;;;
2022/07/26 00:17:17;;;;;;;4.9;3.8;;;;;;;;;;;;;
2022/07/26 00:20:00;;;;;;;5;4.1;;;;;;;;;;;;;
2022/07/26 00:22:35;;;;;;;5.7;3.6;;;;;;;;;;;;;
2022/07/26 00:25:09;;;;;;;8.6;4.1;;;;;;;;;;;;;
2022/07/26 00:27:35;;;;;;;8.2;4.6;;;;;;;;;;;;;
2022/07/26 00:29:59;;;;;;;8.1;4.1;;;;;;;;;;;;;
2022/07/26 00:32:24;;;;;;;5.3;3.8;;;;;;;;;;;;;
2022/07/26 00:34:51;;;;;;;6.1;3.7;;;;;;;;;;;;;
2022/07/26 00:37:16;;;;;;;6.2;3.2;;;;;;;;;;;;;
2022/07/26 00:39:42;;;;;;;5.7;3.4;;;;;;;;;;;;;
2022/07/26 00:42:07;;;;;;;5.8;3.3;;;;;;;;;;;;;
2022/07/26 00:44:33;;;;;;;6.9;4.3;;;;;;;;;;;;;
2022/07/26 00:46:58;;;;;;;6;3.8;;;;;;;;;;;;;
2022/07/26 00:49:24;;;;;;;6.5;3.7;;;;;;;;;;;;;
2022/07/26 00:51:50;;;;;;;6.3;3.9;;;;;;;;;;;;;
2022/07/26 00:54:15;;;;;;;6;3.6;;;;;;;;;;;;;
2022/07/26 00:56:41;;;;;;;5.3;3.3;;;;;;;;;;;;;
2022/07/26 00:59:06;;;;;;;5.1;3.4;;;;;;;;;;;;;
2022/07/26 01:01:32;;;;;;;5.8;3.7;;;;;;;;;;;;;
2022/07/26 01:03:57;;;;;;;6.4;3.4;;;;;;;;;;;;;
2022/07/26 01:06:24;;;;;;;6.1;3.9;;;;;;;;;;;;;
2022/07/26 01:08:50;;;;;;;5.9;3.5;;;;;;;;;;;;;
2022/07/26 01:11:15;;;;;;;6.4;3.9;;;;;;;;;;;;;
2022/07/26 01:13:40;;;;;;;5.9;3.8;;;;;;;;;;;;;
2022/07/26 01:16:05;;;;;;;6.2;3.6;;;;;;;;;;;;;
2022/07/26 01:18:32;;;;;;;7.3;3.9;;;;;;;;;;;;;
2022/07/26 01:20:57;;;;;;;6.3;3.8;;;;;;;;;;;;;
2022/07/26 01:23:23;;;;;;;5.9;3.7;;;;;;;;;;;;;
2022/07/26 01:25:48;;;;;;;7.2;4.3;;;;;;;;;;;;;
2022/07/26 01:28:15;;;;;;;5.4;4;;;;;;;;;;;;;
2022/07/26 01:30:40;;;;;;;6.8;3.8;;;;;;;;;;;;;
2022/07/26 01:33:07;;;;;;;7.3;3.9;;;;;;;;;;;;;
2022/07/26 01:35:32;;;;;;;4.4;3.6;;;;;;;;;;;;;
2022/07/26 01:37:57;;;;;;;6.7;3.7;;;;;;;;;;;;;
2022/07/26 01:40:23;;;;;;;6.3;3.5;;;;;;;;;;;;;
2022/07/26 01:42:49;;;;;;;5.5;3.7;;;;;;;;;;;;;
2022/07/26 01:45:15;;;;;;;6.4;3.7;;;;;;;;;;;;;
2022/07/26 01:47:43;;;;;;;5.3;3.6;;;;;;;;;;;;;
2022/07/26 01:50:07;;;;;;;5.1;3.9;;;;;;;;;;;;;
2022/07/26 01:52:34;;;;;;;6.7;4;;;;;;;;;;;;;
2022/07/26 01:54:57;;;;;;;6.7;3.7;;;;;;;;;;;;;
2022/07/26 01:57:23;;;;;;;5.4;3.5;;;;;;;;;;;;;
2022/07/26 01:59:48;;;;;;;5.2;3.8;;;;;;;;;;;;;
2022/07/26 02:02:14;;;;;;;4.9;3.5;;;;;;;;;;;;;
2022/07/26 02:07:04;;;;;;;6.8;3.8;;;;;;;;;;;;;
2022/07/26 02:09:30;;;;;;;6.3;3.6;;;;;;;;;;;;;
2022/07/26 02:11:55;;;;;;;4.7;3.1;;;;;;;;;;;;;
2022/07/26 02:14:20;;;;;;;4.6;3.4;;;;;;;;;;;;;
2022/07/26 02:16:46;;;;;;;4.3;3.1;;;;;;;;;;;;;
2022/07/26 02:19:11;;;;;;;4.4;3.4;;;;;;;;;;;;;
2022/07/26 02:21:36;;;;;;;4.9;3.2;;;;;;;;;;;;;
2022/07/26 02:24:01;;;;;;;7.2;3.4;;;;;;;;;;;;;
2022/07/26 02:26:28;;;;;;;5.1;3.6;;;;;;;;;;;;;
2022/07/26 02:28:53;;;;;;;4.7;3.7;;;;;;;;;;;;;
2022/07/26 02:31:20;;;;;;;7.3;3.8;;;;;;;;;;;;;
2022/07/26 02:33:45;;;;;;;5.6;3.4;;;;;;;;;;;;;
2022/07/26 02:36:11;;;;;;;5.3;3.5;;;;;;;;;;;;;
2022/07/26 02:38:36;;;;;;;5.8;3.8;;;;;;;;;;;;;
2022/07/26 02:41:02;;;;;;;7.6;4;;;;;;;;;;;;;
2022/07/26 02:43:29;;;;;;;4.9;3.7;;;;;;;;;;;;;
2022/07/26 02:45:54;;;;;;;5.5;3.9;;;;;;;;;;;;;
2022/07/26 02:48:19;;;;;;;6.7;3.7;;;;;;;;;;;;;
2022/07/26 02:50:44;;;;;;;6.4;3.8;;;;;;;;;;;;;
2022/07/26 02:53:09;;;;;;;6.1;3.3;;;;;;;;;;;;;
2022/07/26 02:55:37;;;;;;;5.5;3.3;;;;;;;;;;;;;
2022/07/26 02:58:02;;;;;;;5.1;3.4;;;;;;;;;;;;;
2022/07/26 03:00:29;;;;;;;4.7;3.2;;;;;;;;;;;;;
2022/07/26 03:02:54;;;;;;;4.5;3.1;;;;;;;;;;;;;
2022/07/26 03:05:22;;;;;;;4.6;2.7;;;;;;;;;;;;;
2022/07/26 03:07:48;;;;;;;5.1;3.1;;;;;;;;;;;;;
2022/07/26 03:10:16;;;;;;;4.4;3.2;;;;;;;;;;;;;
2022/07/26 03:12:41;;;;;;;6.6;3.1;;;;;;;;;;;;;
2022/07/26 03:15:11;;;;;;;3.8;2.6;;;;;;;;;;;;;
2022/07/26 03:17:38;;;;;;;3.3;2.2;;;;;;;;;;;;;
2022/07/26 03:20:03;;;;;;;3.6;2.5;;;;;;;;;;;;;
2022/07/26 03:22:33;;;;;;;2.8;2.2;;;;;;;;;;;;;
2022/07/26 03:25:01;;;;;;;3;2;;;;;;;;;;;;;
2022/07/26 03:27:26;;;;;;;4.8;2.5;;;;;;;;;;;;;
2022/07/26 03:29:52;;;;;;;4.3;2.3;;;;;;;;;;;;;
2022/07/26 03:32:18;;;;;;;2.6;2;;;;;;;;;;;;;
2022/07/26 03:34:44;;;;;;;5.9;2.9;;;;;;;;;;;;;
2022/07/26 03:37:09;;;;;;;4.5;3;;;;;;;;;;;;;
2022/07/26 03:39:36;;;;;;;5.1;2.9;;;;;;;;;;;;;
2022/07/26 03:42:00;;;;;;;6.3;3.4;;;;;;;;;;;;;
2022/07/26 03:44:26;;;;;;;6.4;3.3;;;;;;;;;;;;;
2022/07/26 03:46:51;;;;;;;4.4;3.2;;;;;;;;;;;;;
2022/07/26 03:49:17;;;;;;;7.5;3.6;;;;;;;;;;;;;
2022/07/26 03:51:42;;;;;;;4.8;3.3;;;;;;;;;;;;;
2022/07/26 03:54:08;;;;;;;3.5;3;;;;;;;;;;;;;
2022/07/26 03:56:34;;;;;;;5.4;3.3;;;;;;;;;;;;;
2022/07/26 03:58:59;;;;;;;5.3;3.2;;;;;;;;;;;;;
2022/07/26 04:02:35;;;;;;;5.2;3.3;;;;;;;20.11;92.47754;938.1544;;;;
2022/07/26 04:05:00;;;;;;;4.2;3.3;;;;;;;19.92;93.62793;938.2028;;;;
2022/07/26 04:07:25;;;;;;;4.3;3.1;;;;;;;19.75;94.73438;938.2118;;;;
2022/07/26 04:09:56;;;;;;;5.7;3.4;;;;;;;19.73;94.7627;938.1945;;;;
2022/07/26 04:12:21;;;;;;;5.5;3.1;;;;;;;19.68;94.98633;938.1111;;;;
2022/07/26 04:14:52;;;;;;;6.7;3.5;;;;;;;19.61;95.8457;938.1069;;;;
2022/07/26 04:17:21;;;;;;;5.6;3.6;;;;;;;19.54;95.94629;938.0909;;;;
2022/07/26 04:19:52;;;;;;;3.8;3;;;;;;;19.53;95.86426;938.1135;;;;
2022/07/26 04:22:18;;;;;;;4.7;3.2;;;;;;;19.6;96.13477;938.1298;;;;
2022/07/26 04:24:47;;;;;;;5.3;3.5;;;;;;;19.58;96.3877;938.0923;;;;
2022/07/26 04:27:13;;;;;;;6.1;3.8;;;;;;;19.66;95.69238;938.1245;;;;
2022/07/26 04:29:38;;;;;;;5;3;;;;;;;19.72;95.48438;938.1133;;;;
2022/07/26 04:32:10;;;;;;;4.7;3.4;;;;;;;19.8;95.36133;938.1169;;;;
2022/07/26 04:34:41;;;;;;;4.9;3.2;;;;;;;19.87;95.09766;938.1144;;;;
2022/07/26 04:37:14;;;;;;;4.1;3.2;;;;;;;19.71;96.84473;938.1306;;;;
2022/07/26 04:39:46;;;;;;;4.1;2.7;;;;;;;19.63;97.14355;938.0955;;;;
2022/07/26 04:42:12;;;;;;;4.5;2.5;;;;;;;19.62;97.24609;938.122;;;;
2022/07/26 04:44:42;;;;;;;3.6;2.7;;;;;;;19.6;96.6123;938.1548;;;;
2022/07/26 04:47:14;;;;;;;4.1;2.6;;;;;;;19.65;95.45898;938.0861;;;;
2022/07/26 04:49:47;;;;;;;5.5;2.9;;;;;;;19.56;94.81934;938.0186;;;;
2022/07/26 04:52:19;;;;;;;4.3;3;;;;;;;19.53;96.06055;938.0078;;;;
2022/07/26 04:54:51;;;;;;;4.8;2.8;;;;;;;19.45;97.16211;938.0767;;;;
2022/07/26 04:57:20;;;;;;;4.8;2.8;;;;;;;19.33;96.29688;937.943;;;;
2022/07/26 04:59:45;;;;;;;5.5;2.6;;;;;;;19.32;95.36328;937.8819;;;;
2022/07/26 05:02:15;;;;;;;4.4;2.9;;;;;;;19.39;96.05664;937.8203;;;;
2022/07/26 05:04:39;;;;;;;6.1;3.3;;;;;;;19.39;96.42969;937.9188;;;;
2022/07/26 05:07:06;;;;;;;4.5;2.8;;;;;;;19.4;96.60449;938.0009;;;;
2022/07/26 05:09:31;;;;;;;4.8;2.5;;;;;;;19.37;96.28418;938.063;;;;
2022/07/26 05:11:59;;;;;;;3.6;2.7;;;;;;;19.36;95.63867;938.1096;;;;
2022/07/26 05:14:24;;;;;;;4.3;2.6;;;;;;;19.39;95.57715;938.1063;;;;
2022/07/26 05:16:49;;;;;;;4.6;2.4;;;;;;;19.41;94.68359;938.1598;;;;
2022/07/26 05:19:17;;;;;;;4.1;2.7;;;;;;;19.42;94.96484;938.158;;;;
2022/07/26 05:21:42;;;;;;;3.8;2.8;;;;;;;19.29;95.15918;938.1184;;;;
2022/07/26 05:24:08;;;;;;;7.4;3.2;;;;;;;19.38;95.76172;938.0798;;;;
2022/07/26 05:26:33;;;;;;;3.4;2.7;;;;;;;19.49;95.71484;938.1597;;;;
2022/07/26 05:29:02;;;;;;;4.7;2.9;;;;;;;19.55;95.86816;938.1964;;;;
2022/07/26 05:31:27;;;;;;;5.6;3.1;;;;;;;19.54;97.07715;938.1669;;;;
2022/07/26 05:33:54;;;;;;;3.5;2.5;;;;;;;19.5;96.01953;938.0852;;;;
2022/07/26 05:36:19;;;;;;;4.8;2.7;;;;;;;19.5;95.21582;938.0973;;;;
2022/07/26 05:38:47;;;;;;;5.2;2.6;;;;;;;19.52;93.82129;938.0808;;;;
2022/07/26 05:41:12;;;;;;;4.1;2.1;;;;;;;19.42;93.99805;938.1911;;;;
2022/07/26 05:43:40;;;;;;;4.8;2.6;;;;;;;19.51;94.63477;938.2092;;;;
2022/07/26 05:46:05;;;;;;;4;2.6;;;;;;;19.43;94.09277;938.2356;;;;
2022/07/26 05:48:34;;;;;;;4;2.5;;;;;;;19.5;94.20215;938.2436;;;;
2022/07/26 05:50:59;;;;;;;3.9;2.2;;;;;;;19.27;93.05859;938.2294;;;;
2022/07/26 05:53:28;;;;;;;4.1;2.5;;;;;;;19.44;93.64258;938.19;;;;
2022/07/26 05:55:56;;;;;;;3.3;2.3;;;;;;;19.35;95.10156;938.2001;;;;
2022/07/26 05:58:21;;;;;;;3.5;2.1;;;;;;;19.41;94.70703;938.1614;;;;
2022/07/26 06:00:49;;;;;;;4.2;2;;;;;;;19.41;94.52051;938.1688;;;;
2022/07/26 06:03:24;;;;;;;3.1;2.3;;;;;;;19.58;94.0791;938.173;;;;
2022/07/26 06:05:43;;;;;;;3;2.2;;;;;;;19.56;92.71191;938.1381;;;;
2022/07/26 06:08:08;;;;;;;2.9;2;;;;;;;19.57;92.45703;938.095;;;;
2022/07/26 06:10:39;;;;;;;2.8;2;;;;;;;19.67;92.91113;937.9675;;;;
2022/07/26 06:13:04;;;;;;;4.1;2.1;;;;;;;19.85;92.5625;937.9961;;;;
2022/07/26 06:15:37;;;;;;;3.3;2.2;;;;;;;20.05;92.21875;937.9409;;;;
2022/07/26 06:18:02;;;;;;;2.5;1.8;;;;;;;19.99;91.80957;937.9236;;;;
2022/07/26 06:20:29;;;;;;;3.3;2.2;;;;;;;19.85;93.4707;937.9356;;;;
2022/07/26 06:22:56;;;;;;;2.7;1.9;;;;;;;19.8;93.44922;937.9675;;;;
2022/07/26 06:25:19;;;;;;;2.7;1.7;;;;;;;19.96;92.25879;937.952;;;;
2022/07/26 06:27:46;;;;;;;2.6;1.8;;;;;;;19.99;90.60938;937.8864;;;;
2022/07/26 06:30:11;;;;;;;2.4;2.2;;;;;;;19.96;91.33691;937.9263;;;;
2022/07/26 06:32:43;;;;;;;3;1.8;;;;;;;19.98;90.89746;937.9336;;;;
2022/07/26 06:35:06;;;;;;;2.4;2.2;;;;;;;20.11;92.06836;937.8923;;;;
2022/07/26 06:37:33;;;;;;;3.8;1.7;;;;;;;19.98;91.72559;937.8705;;;;
2022/07/26 06:39:58;;;;;;;3;1.8;;;;;;;19.94;93.19824;937.8694;;;;
2022/07/26 06:42:23;;;;;;;3;2.1;;;;;;;19.95;93.88965;937.8746;;;;
2022/07/26 06:44:51;;;;;;;3;1.9;;;;;;;20;93.23438;937.8103;;;;
2022/07/26 06:47:16;;;;;;;2.4;2.1;;;;;;;20.05;92.10254;937.8431;;;;
2022/07/26 06:49:45;;;;;;;3.5;1.9;;;;;;;20.07;92.20898;937.8719;;;;
2022/07/26 06:52:15;;;;;;;3.9;2.1;;;;;;;20.17;92.8623;937.8753;;;;
2022/07/26 06:54:40;;;;;;;2.5;2.3;;;;;;;20.31;90.66211;937.878;;;;
2022/07/26 06:57:07;;;;;;;2.3;1.8;;;;;;;20.33;88.41211;937.8154;;;;
2022/07/26 06:59:32;;;;;;;2.6;1.8;;;;;;;20.24;88.14941;937.8261;;;;
2022/07/26 07:02:00;;;;;;;2.6;1.8;;;;;;;20.16;89.53418;937.8078;;;;
2022/07/26 07:04:25;;;;;;;3;2.1;;;;;;;20.19;89.13086;937.7356;;;;
2022/07/26 07:06:51;;;;;;;2.4;2;;;;;;;20.22;89.4043;937.7608;;;;
2022/07/26 07:09:16;;;;;;;3.7;2.1;;;;;;;20.17;90.20117;937.733;;;;
2022/07/26 07:11:44;;;;;;;4.2;2;;;;;;;20.24;89.80664;937.7911;;;;
2022/07/26 07:14:08;;;;;;;4.2;2.1;;;;;;;20.28;89.59473;937.7787;;;;
2022/07/26 07:16:33;;;;;;;2.5;1.9;;;;;;;20.32;89.46191;937.7371;;;;
2022/07/26 07:19:00;;;;;;;3.9;2.9;;;;;;;20.35;88.60449;937.6973;;;;
2022/07/26 07:21:26;;;;;;;2.6;2.1;;;;;;;20.27;88.25977;937.6877;;;;
2022/07/26 07:23:52;;;;;;;3.1;1.9;;;;;;;20.2;88.4668;937.6635;;;;
2022/07/26 07:26:18;;;;;;;2.8;2;;;;;;;20.36;88.25488;937.6641;;;;
2022/07/26 07:28:48;;;;;;;2.8;2.1;;;;;;;20.34;89.65234;937.6523;;;;
2022/07/26 07:31:13;;;;;;;2.9;2;;;;;;;20.45;88.09766;937.6902;;;;
2022/07/26 07:33:39;;;;;;;2.3;2;;;;;;;20.55;89.28516;937.6462;;;;
2022/07/26 07:36:05;;;;;;;2.9;2;;;;;;;20.56;89.42871;937.6199;;;;
2022/07/26 07:38:31;;;;;;;2.9;2;;;;;;;20.54;89.73926;937.6415;;;;
2022/07/26 07:40:56;;;;;;;1.8;1.7;;;;;;;20.62;88.86719;937.6342;;;;
2022/07/26 07:43:25;;;;;;;1.9;1.7;;;;;;;20.69;87.94727;937.6348;;;;
2022/07/26 07:45:50;;;;;;;2.9;2.1;;;;;;;20.83;87.82227;937.6842;;;;
2022/07/26 07:48:17;;;;;;;2.8;1.8;;;;;;;20.95;85.66113;937.6506;;;;
2022/07/26 07:50:42;;;;;;;3.6;1.8;;;;;;;21.08;83.77832;937.6548;;;;
2022/07/26 07:53:07;;;;;;;2.6;1.9;;;;;;;21.11;81.82031;937.7136;;;;
2022/07/26 07:55:33;;;;;;;2.9;1.9;;;;;;;21.11;82.55566;937.7225;;;;
2022/07/26 07:57:58;;;;;;;3.1;2;;;;;;;21.01;86.125;937.8503;;;;
2022/07/26 08:00:25;;;;;;;4.1;1.7;;;;;;;20.8;84.87109;937.8911;;;;
2022/07/26 08:02:54;;;;;;;2.3;1.7;;;;;;;20.87;85.69141;937.9307;;;;
2022/07/26 08:05:15;;;;;;;3.8;2.2;;;;;;;20.88;85.4248;937.8929;;;;
2022/07/26 08:07:43;;;;;;;2.8;1.8;;;;;;;20.8;86.6709;937.8856;;;;
2022/07/26 08:10:08;;;;;;;2.8;2;;;;;;;20.83;86.57129;937.86;;;;
2022/07/26 08:12:36;;;;;;;2.6;1.8;;;;;;;20.93;85.42188;937.9523;;;;
2022/07/26 08:15:01;;;;;;;1.8;1.5;;;;;;;20.93;85.25781;937.923;;;;
2022/07/26 08:17:26;;;;;;;2.6;1.9;;;;;;;20.95;88.4668;937.9264;;;;
2022/07/26 08:19:54;;;;;;;2.5;1.9;;;;;;;21.2;87.07813;937.8605;;;;
2022/07/26 08:22:21;;;;;;;2.3;1.9;;;;;;;21.45;86.2832;937.8032;;;;
2022/07/26 08:24:46;;;;;;;3;2;;;;;;;21.82;83.87207;937.9408;;;;
2022/07/26 08:27:13;;;;;;;3.1;1.9;;;;;;;22.82;83.30957;937.9258;;;;
2022/07/26 08:29:38;;;;;;;1.7;1.6;;;;;;;24.78;72.17676;937.9657;;;;
2022/07/26 08:32:06;;;;;;;2.5;2.1;;;;;;;25.25;70.68359;937.9756;;;;
2022/07/26 08:34:31;;;;;;;2.9;1.9;;;;;;;25.2;69.56543;937.9991;;;;
2022/07/26 08:37:00;;;;;;;2.3;1.6;;;;;;;24.35;70.15332;938.0575;;;;
2022/07/26 08:39:25;;;;;;;1.9;1.7;;;;;;;24.2;72.51855;938.0231;;;;
2022/07/26 08:41:51;;;;;;;2.8;2;;;;;;;23.51;74.14746;938.0941;;;;
2022/07/26 08:44:16;;;;;;;2.5;2;;;;;;;23.42;76.48438;938.1194;;;;
2022/07/26 08:46:41;;;;;;;2.1;1.6;;;;;;;23.09;78.7666;938.0964;;;;
2022/07/26 08:49:10;;;;;;;2.5;1.9;;;;;;;23.07;77.95117;938.0825;;;;
2022/07/26 08:51:35;;;;;;;2.7;1.7;;;;;;;23.52;76.60742;938.0993;;;;
2022/07/26 08:54:02;;;;;;;2.2;1.5;;;;;;;25.33;69.51563;938.0556;;;;
2022/07/26 08:56:27;;;;;;;1.3;1.2;;;;;;;26.23;62.21191;938.0761;;;;
2022/07/26 08:58:54;;;;;;;1.5;1.3;;;;;;;26.86;65.52246;938.116;;;;
2022/07/26 09:01:19;;;;;;;2.2;1.3;;;;;;;28.24;62.50195;938.0489;;;;
2022/07/26 09:03:47;;;;;;;1.6;1.1;;;;;;;28.27;55.37598;937.9963;;;;
2022/07/26 09:06:12;;;;;;;1.7;1.3;;;;;;;28.1;55.80664;938.0338;;;;
2022/07/26 09:08:37;;;;;;;2;1.4;;;;;;;28.53;54.81348;937.9924;;;;
2022/07/26 09:11:02;;;;;;;2.4;1.4;;;;;;;28.98;53.30859;938.0193;;;;
2022/07/26 09:13:31;;;;;;;1.3;1.2;;;;;;;27.51;57.00293;938.02;;;;
2022/07/26 09:16:00;;;;;;;1.8;1.5;;;;;;;27.78;54.97168;937.9799;;;;
2022/07/26 09:18:25;;;;;;;1.5;1.4;;;;;;;27.81;58.47754;937.9208;;;;
2022/07/26 09:20:52;;;;;;;1.5;1.4;;;;;;;26.78;63.5918;937.9994;;;;
2022/07/26 09:23:18;;;;;;;2.3;1.2;;;;;;;28.28;56.93555;937.9727;;;;
2022/07/26 09:25:43;;;;;;;1.4;1.3;;;;;;;27.26;58.42969;937.9963;;;;
2022/07/26 09:28:09;;;;;;;1.5;1.4;;;;;;;28.44;57.08496;937.9701;;;;
2022/07/26 09:30:34;;;;;;;1.5;1.4;;;;;;;27.56;59.96387;937.9716;;;;
2022/07/26 09:33:03;;;;;;;3.4;1.7;;;;;;;26.93;58.7666;937.9496;;;;
2022/07/26 09:35:31;;;;;;;2.1;1.5;;;;;;;26.68;62.92578;937.9016;;;;
2022/07/26 09:37:56;;;;;;;1.8;1.5;;;;;;;26.72;62.05469;937.9242;;;;
2022/07/26 09:40:26;;;;;;;3.8;1.7;;;;;;;25.46;64.78711;937.9542;;;;
2022/07/26 09:42:51;;;;;;;1.8;1.7;;;;;;;25.85;65.12695;937.9547;;;;
2022/07/26 09:45:34;;;;;;;1.7;1.6;;;;;;;26.49;63.33789;937.9522;;;;
2022/07/26 09:48:09;;;;;;;2.3;1.5;;;;;;;26.14;67.28809;937.967;;;;
2022/07/26 09:53:22;;;;;;;1.5;1.4;;;;;;;26.9;59.62695;937.9941;;;;
2022/07/26 09:55:40;;;;;;;1.8;1.2;;;;;;;25.5;62.25391;937.9875;;;;
2022/07/26 09:58:02;;;;;;;1.1;1;;;;;;;25.85;61.4043;938.014;;;;
2022/07/26 10:00:26;;;;;;;2;1.3;;;;;;;25.12;63.66309;938.0786;;;;
2022/07/26 10:02:54;;;;;;;2;1.4;;;;;;;24.97;64.30176;938.0623;;;;
2022/07/26 10:05:24;;;;;;;1.2;1.1;;;;;;;24.97;63.11133;938.0662;;;;
2022/07/26 10:07:49;;;;;;;1.3;1.2;;;;;;;24.16;65.70605;938.0851;;;;
2022/07/26 10:10:17;;;;;;;1.2;1.1;;;;;;;23.84;67.15234;938.1033;;;;
2022/07/26 10:12:45;;;;;;;1.3;1.2;;;;;;;23.92;65.77539;938.1852;;;;
2022/07/26 10:15:08;;;;;;;2.4;1.3;;;;;;;23.67;67.45703;938.2402;;;;
2022/07/26 10:17:33;;;;;;;1.4;1.2;;;;;;;23.37;67.48242;938.2238;;;;
2022/07/26 10:20:00;;;;;;;1.2;1.1;;;;;;;22.94;69.31934;938.2481;;;;
2022/07/26 10:22:29;;;;;;;1.9;1.3;;;;;;;22.98;69.44434;938.236;;;;
2022/07/26 10:24:53;;;;;;;1.4;1.3;;;;;;;22.73;70.42578;938.2872;;;;
2022/07/26 10:27:24;;;;;;;1.5;1.4;;;;;;;22.91;70.04395;938.2426;;;;
2022/07/26 10:29:51;;;;;;;1.5;1.4;;;;;;;22.95;69.67383;938.2029;;;;
2022/07/26 10:33:06;;;;;;;1.6;1.5;;;;;;;22.89;70.875;938.2661;;;;
2022/07/26 10:35:31;;;;;;;1.7;1.4;;;;;;;22.85;70.67773;938.3272;;;;
2022/07/26 10:37:58;;;;;;;1.8;1.3;;;;;;;22.86;71.24512;938.355;;;;
2022/07/26 10:40:28;;;;;;;2.2;1.2;;;;;;;22.78;71.91309;938.283;;;;
2022/07/26 10:42:48;;;;;;;2.5;1.4;;;;;;;23.09;69.8252;938.3133;;;;
2022/07/26 10:45:19;;;;;;;1.7;1.3;;;;;;;23.14;70.14941;938.3261;;;;
2022/07/26 10:47:48;;;;;;;1.6;1.1;;;;;;;23.11;70.75684;938.3231;;;;
2022/07/26 10:50:13;;;;;;;1.7;1.3;;;;;;;23.11;70.44922;938.3143;;;;
2022/07/26 10:52:45;;;;;;;1.9;1.4;;;;;;;23.38;69.22461;938.3906;;;;
2022/07/26 10:55:17;;;;;;;3.3;1.6;;;;;;;23.13;71.64063;938.3669;;;;
2022/07/26 10:57:46;;;;;;;2.2;1.4;;;;;;;23.18;70.16699;938.2758;;;;
2022/07/26 11:00:19;;;;;;;1.5;1.2;;;;;;;23.25;69.79102;938.348;;;;
2022/07/26 11:02:44;;;;;;;1.6;1.1;;;;;;;23.34;70.1709;938.4085;;;;
2022/07/26 11:05:13;;;;;;;1.3;1.2;;;;;;;23.26;71.02637;938.42;;;;
2022/07/26 11:07:34;;;;;;;1.7;1.2;;;;;;;23.3;70.73926;938.4508;;;;
2022/07/26 11:10:00;;;;;;;1.7;1.2;;;;;;;23.1;70.04883;938.305;;;;
2022/07/26 11:12:25;;;;;;;1.5;1.2;;;;;;;22.99;71.33496;938.4297;;;;
2022/07/26 11:14:54;;;;;;;1.7;1.2;;;;;;;22.85;72.55957;938.3553;;;;
2022/07/26 11:17:23;;;;;;;1.9;1.1;;;;;;;23.02;72.03418;938.3522;;;;
2022/07/26 11:19:48;;;;;;;1.7;1.3;;;;;;;23.1;71.47168;938.3681;;;;
2022/07/26 11:22:15;;;;;;;1.3;1.2;;;;;;;23.12;71.00488;938.3706;;;;
2022/07/26 11:24:40;;;;;;;1.5;1.3;;;;;;;23.24;70.04883;938.3661;;;;
2022/07/26 11:27:06;;;;;;;2.3;1.1;;;;;;;22.91;71.8291;938.3783;;;;
2022/07/26 11:29:33;;;;;;;1.8;1.2;;;;;;;22.87;72.64355;938.3125;;;;
2022/07/26 11:33:04;;;;;;;1.1;1;;;;;;;22.96;72.2959;938.3179;;;;
2022/07/26 11:38:08;;;;;;;1.5;1.2;;;;;;;23.27;69.89941;938.3047;;;;
2022/07/26 11:43:32;;;;;;;1.7;1.3;;;;;;;23.25;68.75684;938.3489;;;;
2022/07/26 11:46:02;;;;;;;1.2;1.1;;;;;;;23.03;68.8291;938.3231;;;;
2022/07/26 11:49:09;;;;;;;1.2;1.1;;;;;;;22.78;70.34082;938.3606;;;;
2022/07/26 11:51:23;;;;;;;1.9;1.1;;;;;;;22.5;71.03418;938.4075;;;;
2022/07/26 11:53:48;;;;;;;1.8;1.3;;;;;;;22.11;72.99023;938.4448;;;;
2022/07/26 11:56:13;;;;;;;1.4;1.3;;;;;;;21.74;76.34766;938.5176;;;;
2022/07/26 11:58:38;;;;;;;2.5;1.7;;;;;;;21.59;77.2002;938.5586;;;;
2022/07/26 12:01:07;;;;;;;2.5;1.8;;;;;;;21.36;78.40137;938.5204;;;;
2022/07/26 12:03:32;;;;;;;3.2;1.9;;;;;;;21.06;79.9375;938.5567;;;;
2022/07/26 12:05:57;;;;;;;2.7;1.8;;;;;;;21.13;79.58789;938.5513;;;;
2022/07/26 12:08:22;;;;;;;2.4;1.6;;;;;;;21.02;80.79785;938.6573;;;;
2022/07/26 12:10:47;;;;;;;2.3;1.9;;;;;;;20.97;83.76953;938.6375;;;;
2022/07/26 12:13:15;;;;;;;3.6;1.9;;;;;;;21.07;83.03027;938.6315;;;;
2022/07/26 12:15:41;;;;;;;2.2;1.7;;;;;;;21.15;82.03613;938.6487;;;;
2022/07/26 12:18:09;;;;;;;2.5;1.8;;;;;;;21.29;82.60059;938.546;;;;
2022/07/26 12:20:34;;;;;;;3.7;1.9;;;;;;;21.5;81.03613;938.5219;;;;
2022/07/26 12:23:04;;;;;;;3.7;2;;;;;;;21.63;80.68555;938.4733;;;;
2022/07/26 12:25:25;;;;;;;2.7;2;;;;;;;21.67;81.71094;938.4307;;;;
2022/07/26 12:27:51;;;;;;;2.5;1.8;;;;;;;22.24;79.96289;938.4822;;;;
2022/07/26 12:30:18;;;;;;;2;1.6;;;;;;;22.68;79.85645;938.4408;;;;
2022/07/26 12:32:47;;;;;;;2.3;1.6;;;;;;;22.63;77.55664;938.4364;;;;
2022/07/26 12:35:11;;;;;;;1.8;1.5;;;;;;;22.37;81.6416;938.3209;;;;
2022/07/26 12:37:45;;;;;;;2.3;1.8;;;;;;;22.45;79.82617;938.2745;;;;
2022/07/26 12:40:20;;;;;;;2.3;1.7;;;;;;;22.59;77.26855;938.2905;;;;
2022/07/26 12:42:45;;;;;;;2.3;1.7;;;;;;;22.48;77.63672;938.2167;;;;
2022/07/26 12:45:17;;;;;;;2.3;2;;;;;;;22.63;77.48633;938.3162;;;;
2022/07/26 12:47:42;;;;;;;4.1;2.3;;;;;;;22.27;78.07031;938.3081;;;;
2022/07/26 12:50:07;;;;;;;2.4;1.8;;;;;;;22.42;78.01367;938.2964;;;;
2022/07/26 12:52:33;;;;;;;2.2;1.8;;;;;;;22.3;76.1748;938.2883;;;;
2022/07/26 12:54:58;;;;;;;2;1.6;;;;;;;22.08;77.11035;938.3047;;;;
2022/07/26 12:57:26;;;;;;;1.9;1.7;;;;;;;22.32;76.49609;938.3113;;;;
2022/07/26 12:59:51;;;;;;;2;1.7;;;;;;;22.49;76.66309;938.3041;;;;
2022/07/26 13:02:17;;;;;;;2;1.7;;;;;;;22.58;76.21094;938.3144;;;;
2022/07/26 13:04:48;;;;;;;1.8;1.7;;;;;;;22.71;76.57422;938.3624;;;;
2022/07/26 13:07:13;;;;;;;2.9;1.7;;;;;;;22.71;77.27734;938.3214;;;;
2022/07/26 13:09:39;;;;;;;2.6;1.5;;;;;;;22.8;77.68262;938.3209;;;;
2022/07/26 13:12:04;;;;;;;2.8;1.9;;;;;;;22.78;80.45996;938.2731;;;;
2022/07/26 13:14:32;;;;;;;2.4;1.7;;;;;;;22.85;80.39063;938.25;;;;
2022/07/26 13:17:08;;;;;;;2.1;1.7;;;;;;;22.9;78.74512;938.1774;;;;
2022/07/26 13:19:38;;;;;;;2.1;1.7;;;;;;;22.67;75.70996;938.1911;;;;
2022/07/26 13:22:34;;;;;;;2.1;1.7;;;;;;;22.57;77.04297;938.1183;;;;
2022/07/26 13:24:48;;;;;;;2;1.8;;;;;;;22.8;75.87207;938.0736;;;;
2022/07/26 13:27:17;;;;;;;2.4;1.7;;;;;;;22.88;77.0957;938.0207;;;;
2022/07/26 13:29:46;;;;;;;3.2;1.7;;;;;;;23.11;72.8125;938.02;;;;
2022/07/26 13:32:11;;;;;;;2.4;1.8;;;;;;;23.54;73.31836;937.9886;;;;
2022/07/26 13:34:39;;;;;;;1.7;1.5;;;;;;;23.98;70.84766;938.0158;;;;
2022/07/26 13:37:04;;;;;;;2;1.8;;;;;;;24.36;70.64844;937.9661;;;;
2022/07/26 13:39:34;;;;;;;1.8;1.7;;;;;;;24.66;69.93066;937.9913;;;;
2022/07/26 13:41:59;;;;;;;2.6;1.7;;;;;;;25.1;66.83496;937.9409;;;;
2022/07/26 13:44:26;;;;;;;1.8;1.7;;;;;;;25.53;63.91113;937.9428;;;;
2022/07/26 13:46:51;;;;;;;2.9;1.7;;;;;;;25.65;64.80273;937.9183;;;;
2022/07/26 13:49:19;;;;;;;2.1;1.7;;;;;;;25.7;65.83691;937.9009;;;;
2022/07/26 13:52:00;;;;;;;2.3;1.9;;;;;;;25.08;65.3457;937.8259;;;;
2022/07/26 13:54:10;;;;;;;2.4;1.4;;;;;;;25.06;71.89258;937.8709;;;;
2022/07/26 13:56:35;;;;;;;2;1.6;;;;;;;25.4;66.99805;937.7925;;;;
2022/07/26 13:59:00;;;;;;;2;1.3;;;;;;;25.43;62.62109;937.8097;;;;
2022/07/26 14:01:26;;;;;;;1.8;1.7;;;;;;;25.57;62.99512;937.7957;;;;
2022/07/26 14:03:51;;;;;;;2.1;1.6;;;;;;;25.36;63.4502;937.7267;;;;
2022/07/26 14:06:16;;;;;;;1.6;1.5;;;;;;;25.33;62.97363;937.7297;;;;
2022/07/26 14:08:42;;;;;;;1.9;1.7;;;;;;;25.38;63.18164;937.772;;;;
2022/07/26 14:11:07;;;;;;;2;1.7;;;;;;;25.15;63.75098;937.7511;;;;
2022/07/26 14:13:32;;;;;;;1.5;1.4;;;;;;;25.43;64.85352;937.73;;;;
2022/07/26 14:16:10;;;;;;;1.5;1.4;;;;;;;25.79;63.00293;937.756;;;;
2022/07/26 14:18:37;;;;;;;2.6;1.5;;;;;;;26.03;62.1123;937.7637;;;;
2022/07/26 14:21:02;;;;;;;2;1.5;;;;;;;26.14;64.79004;937.8181;;;;
2022/07/26 14:23:29;;;;;;;1.3;1.2;;;;;;;26.04;62.30371;937.8044;;;;
2022/07/26 14:25:55;;;;;;;1.6;1.5;;;;;;;26.05;65.46289;937.7106;;;;
2022/07/26 14:28:20;;;;;;;4;1.5;;;;;;;25.87;62.11426;937.7953;;;;
2022/07/26 14:30:57;;;;;;;1.9;1.3;;;;;;;25.19;62.02051;937.7058;;;;
2022/07/26 14:33:17;;;;;;;1.9;1.5;;;;;;;24.98;65.38965;937.7364;;;;
2022/07/26 14:35:42;;;;;;;2.2;1.5;;;;;;;25.22;66.90137;937.6972;;;;
2022/07/26 14:38:16;;;;;;;1.5;1.4;;;;;;;25.45;67.59668;937.6344;;;;
2022/07/26 14:40:41;;;;;;;1.9;1.5;;;;;;;25.84;65.63379;937.5573;;;;
2022/07/26 14:43:07;;;;;;;3.3;1.4;;;;;;;26.12;63.66406;937.6166;;;;
2022/07/26 14:45:32;;;;;;;2.3;1.8;;;;;;;26.09;64.00293;937.5543;;;;
2022/07/26 14:47:57;;;;;;;1.9;1.4;;;;;;;26.14;64.07031;937.5751;;;;
2022/07/26 14:50:26;;;;;;;1.3;1.2;;;;;;;25.91;63.89551;937.5965;;;;
2022/07/26 14:52:51;;;;;;;1.6;1.5;;;;;;;25.86;64.00586;937.5535;;;;
2022/07/26 14:55:18;;;;;;;1.6;1.4;;;;;;;25.6;65.10352;937.533;;;;
2022/07/26 14:57:43;;;;;;;1.8;1.6;;;;;;;25.58;61.4375;937.5323;;;;
2022/07/26 15:00:19;;;;;;;1.3;1;;;;;;;25.51;62.52539;937.4213;;;;
2022/07/26 15:02:44;;;;;;;1.6;1.5;;;;;;;25.37;64.06348;937.5282;;;;
2022/07/26 15:05:15;;;;;;;2.3;1.5;;;;;;;25.45;63.00195;937.5128;;;;
2022/07/26 15:07:45;;;;;;;1.5;1.4;;;;;;;25;65.35742;937.5012;;;;
2022/07/26 15:10:51;;;;;;;2;1.5;;;;;;;24.83;64.78809;937.4437;;;;
2022/07/26 15:13:07;;;;;;;1.6;1.5;;;;;;;24.53;65.125;937.378;;;;
2022/07/26 15:15:41;;;;;;;1.9;1.7;;;;;;;24.46;66.35059;937.445;;;;
2022/07/26 15:18:39;;;;;;;1.6;1.5;;;;;;;24.36;65.58301;937.4361;;;;
2022/07/26 15:20:58;;;;;;;2;1.5;;;;;;;24.55;64.86719;937.4156;;;;
2022/07/26 15:23:22;;;;;;;1.8;1.5;;;;;;;24.61;66.59766;937.4494;;;;
2022/07/26 15:25:49;;;;;;;1.4;1.3;;;;;;;24.64;65.64746;937.3855;;;;
2022/07/26 15:28:14;;;;;;;1.9;1.5;;;;;;;24.38;65.37402;937.484;;;;
2022/07/26 15:30:41;;;;;;;1.4;1.3;;;;;;;24.23;66.19824;937.4553;;;;
2022/07/26 15:33:06;;;;;;;1.9;1.5;;;;;;;24.31;67.22461;937.44;;;;
2022/07/26 15:35:37;;;;;;;1.4;1.3;;;;;;;24.34;67.41699;937.4193;;;;
2022/07/26 15:38:00;;;;;;;1.7;1.6;;;;;;;24.24;68.12109;937.4631;;;;
2022/07/26 15:40:27;;;;;;;1.7;1.6;;;;;;;24.06;70.05957;937.4716;;;;
2022/07/26 15:42:52;;;;;;;2.2;1.4;;;;;;;23.76;71.96484;937.5005;;;;
2022/07/26 15:45:18;;;;;;;2.9;1.8;;;;;;;23.93;71.09863;937.4641;;;;
2022/07/26 15:47:49;;;;;;;1.3;1.2;;;;;;;23.98;70.63574;937.4991;;;;
2022/07/26 15:50:20;;;;;;;1.9;1.6;;;;;;;23.75;70.18652;937.4684;;;;